Time;durP1;ratioP1;P1;durP2;ratioP2;P2;SDS_P1;SDS_P2;PMS_P1;PMS_P2;Temp;Humidity;BMP_temperature;BMP_pressure;BME280_temperature;BME280_humidity;BME280_pressure;Samples;Min_cycle;Max_cycle;Signal;HPM_P1;HPM_P2
2021/03/28 00:02:25;;;;;;;5.43;4.28;;;3.90;99.90;;;;;;5040269;28;20203;-83
2021/03/28 00:04:57;;;;;;;6.63;5.68;;;3.90;99.90;;;;;;5041336;28;20184;-82
2021/03/28 00:07:34;;;;;;;6.68;5.57;;;3.90;99.90;;;;;;5041466;28;20192;-82
2021/03/28 00:10:02;;;;;;;6.05;4.65;;;3.90;99.90;;;;;;5041852;28;20191;-83
2021/03/28 00:12:36;;;;;;;10.98;5.22;;;3.80;99.90;;;;;;5041753;28;20262;-82
2021/03/28 00:15:19;;;;;;;6.90;4.40;;;3.90;99.90;;;;;;5044528;28;20238;-83
2021/03/28 00:17:50;;;;;;;7.50;5.88;;;3.80;99.90;;;;;;5051367;28;20204;-83
2021/03/28 00:20:28;;;;;;;8.45;5.80;;;3.80;99.90;;;;;;5050690;28;20199;-83
2021/03/28 00:23:09;;;;;;;6.97;5.30;;;3.80;99.90;;;;;;5043769;28;20270;-83
2021/03/28 00:25:43;;;;;;;6.30;5.30;;;3.70;99.90;;;;;;5041320;28;20540;-83
2021/03/28 00:28:28;;;;;;;5.95;4.60;;;3.70;99.90;;;;;;5041971;28;20674;-84
2021/03/28 00:31:14;;;;;;;6.70;5.40;;;3.40;99.90;;;;;;5041770;28;20224;-83
2021/03/28 00:33:43;;;;;;;7.70;4.28;;;3.20;99.90;;;;;;5042368;28;20598;-83
2021/03/28 00:36:14;;;;;;;5.55;4.68;;;3.60;99.90;;;;;;5042225;28;20211;-83
2021/03/28 00:38:55;;;;;;;7.95;5.28;;;3.50;99.90;;;;;;5044147;28;20206;-84
2021/03/28 00:41:26;;;;;;;4.80;4.38;;;3.60;99.90;;;;;;5044852;28;20311;-84
2021/03/28 00:43:57;;;;;;;8.57;5.15;;;3.50;99.90;;;;;;5044137;28;20737;-83
2021/03/28 00:46:41;;;;;;;10.23;5.25;;;3.60;99.90;;;;;;5044983;28;20255;-83
2021/03/28 00:49:23;;;;;;;6.50;4.10;;;3.80;99.90;;;;;;5045268;28;20203;-83
2021/03/28 00:51:53;;;;;;;8.07;6.50;;;3.60;99.90;;;;;;5045843;28;20261;-83
2021/03/28 00:54:35;;;;;;;5.30;4.57;;;3.30;99.90;;;;;;5046636;28;20597;-83
2021/03/28 00:57:14;;;;;;;6.50;4.68;;;3.70;99.90;;;;;;5046572;28;20188;-83
2021/03/28 00:59:52;;;;;;;5.88;4.75;;;3.70;99.90;;;;;;5046664;28;20218;-82
2021/03/28 01:02:27;;;;;;;7.53;4.85;;;3.80;99.90;;;;;;5047259;28;20195;-83
2021/03/28 01:05:31;;;;;;;6.60;4.43;;;3.60;99.90;;;;;;5048881;28;20253;-83
2021/03/28 01:08:03;;;;;;;7.75;3.95;;;3.60;99.90;;;;;;5052052;28;20222;-83
2021/03/28 01:10:49;;;;;;;12.05;5.25;;;3.60;99.90;;;;;;5049087;28;20192;-84
2021/03/28 01:14:00;;;;;;;13.25;5.25;;;3.50;99.90;;;;;;5045663;28;20693;-82
2021/03/28 01:17:11;;;;;;;5.07;4.20;;;3.50;99.90;;;;;;5042000;28;20210;-82
2021/03/28 01:20:09;;;;;;;5.93;4.18;;;3.50;99.90;;;;;;5042584;28;20210;-83
2021/03/28 01:22:44;;;;;;;6.75;4.40;;;3.40;99.90;;;;;;5042618;28;20274;-82
2021/03/28 01:25:46;;;;;;;6.57;4.30;;;3.40;99.90;;;;;;5042260;28;20198;-83
2021/03/28 01:28:19;;;;;;;8.82;5.05;;;3.40;99.90;;;;;;5001034;28;20261;-82
2021/03/28 01:30:49;;;;;;;6.15;4.20;;;3.50;99.90;;;;;;5042811;28;20192;-82
2021/03/28 01:33:17;;;;;;;11.00;4.95;;;3.50;99.90;;;;;;5042951;28;20223;-82
2021/03/28 01:35:56;;;;;;;6.53;4.50;;;3.40;99.90;;;;;;5042056;28;20231;-84
2021/03/28 01:38:28;;;;;;;8.00;4.15;;;3.40;99.90;;;;;;5041793;28;20198;-83
2021/03/28 01:40:58;;;;;;;10.13;5.32;;;3.60;99.90;;;;;;5042324;28;20215;-83
2021/03/28 01:43:38;;;;;;;9.13;4.25;;;3.50;99.90;;;;;;5073163;23;20231;-82
2021/03/28 01:46:14;;;;;;;8.65;4.47;;;3.40;99.90;;;;;;5064639;28;20634;-80
2021/03/28 01:48:55;;;;;;;6.75;4.75;;;3.30;99.90;;;;;;5076627;28;20287;-80
2021/03/28 01:51:47;;;;;;;10.52;4.30;;;3.40;99.90;;;;;;5075712;28;20186;-82
2021/03/28 01:54:22;;;;;;;9.02;5.10;;;3.40;99.90;;;;;;5063764;28;20230;-81
2021/03/28 01:56:55;;;;;;;9.90;5.20;;;3.30;99.90;;;;;;5068188;28;20186;-80
2021/03/28 01:59:35;;;;;;;8.40;5.25;;;3.30;99.90;;;;;;5074921;28;20190;-79
2021/03/28 02:02:08;;;;;;;11.88;5.40;;;3.40;99.90;;;;;;5074487;28;20191;-80
2021/03/28 02:04:46;;;;;;;9.40;5.22;;;3.30;99.90;;;;;;5074665;28;20222;-81
2021/03/28 02:07:23;;;;;;;7.75;5.30;;;3.30;99.90;;;;;;5073025;28;20201;-80
2021/03/28 02:09:57;;;;;;;9.27;4.70;;;3.40;99.90;;;;;;5062604;28;20187;-82
2021/03/28 02:12:38;;;;;;;7.57;4.78;;;3.30;99.90;;;;;;5061234;28;20194;-81
2021/03/28 02:15:43;;;;;;;10.32;5.50;;;3.30;99.90;;;;;;5060120;28;20552;-83
2021/03/28 02:18:24;;;;;;;7.60;4.43;;;3.20;99.90;;;;;;5058380;28;20597;-81
2021/03/28 02:20:56;;;;;;;8.95;5.97;;;3.30;99.90;;;;;;5059986;28;20191;-82
2021/03/28 02:23:30;;;;;;;10.27;5.10;;;3.20;99.90;;;;;;5058950;28;20218;-83
2021/03/28 02:26:05;;;;;;;6.50;4.90;;;3.20;99.90;;;;;;5059730;28;20187;-82
2021/03/28 02:28:47;;;;;;;9.43;5.15;;;3.20;99.90;;;;;;5059664;28;20198;-83
2021/03/28 02:31:25;;;;;;;6.03;4.53;;;3.20;99.90;;;;;;5060221;28;20214;-81
2021/03/28 02:33:58;;;;;;;5.72;4.03;;;3.20;99.90;;;;;;5060196;28;20632;-83
2021/03/28 02:36:32;;;;;;;6.13;4.57;;;3.10;99.90;;;;;;5061001;28;20214;-83
2021/03/28 02:39:22;;;;;;;7.70;4.85;;;3.00;99.90;;;;;;5064076;28;20195;-84
2021/03/28 02:42:09;;;;;;;6.93;4.93;;;3.00;99.90;;;;;;5063487;28;20191;-82
2021/03/28 02:44:49;;;;;;;6.15;4.75;;;2.90;99.90;;;;;;5065324;28;20231;-82
2021/03/28 02:47:31;;;;;;;8.98;4.53;;;2.90;99.90;;;;;;5069196;28;20195;-81
2021/03/28 02:50:10;;;;;;;8.13;4.63;;;3.20;99.90;;;;;;5077743;28;20175;-82
2021/03/28 02:52:58;;;;;;;9.68;4.45;;;2.90;99.90;;;;;;5076859;28;20223;-81
2021/03/28 02:55:44;;;;;;;9.27;4.75;;;3.00;99.90;;;;;;5076248;28;20214;-80
2021/03/28 02:58:31;;;;;;;13.70;4.75;;;3.20;99.90;;;;;;5075792;28;20191;-80
2021/03/28 03:01:12;;;;;;;10.32;5.82;;;3.00;99.90;;;;;;5074377;28;20198;-80
2021/03/28 03:03:54;;;;;;;7.13;4.80;;;2.90;99.90;;;;;;5071322;28;20230;-80
2021/03/28 03:06:43;;;;;;;8.90;5.10;;;2.90;99.90;;;;;;5068262;28;20711;-81
2021/03/28 03:09:18;;;;;;;7.93;4.97;;;2.70;99.90;;;;;;5065170;28;20199;-81
2021/03/28 03:12:09;;;;;;;7.97;4.78;;;2.90;99.90;;;;;;5062999;28;20509;-82
2021/03/28 03:14:52;;;;;;;10.13;5.57;;;2.90;99.90;;;;;;5056060;28;20578;-82
2021/03/28 03:17:48;;;;;;;6.75;4.30;;;2.90;99.90;;;;;;5059816;28;20206;-82
2021/03/28 03:20:48;;;;;;;12.73;5.57;;;2.90;99.90;;;;;;5060547;28;20637;-82
2021/03/28 03:23:50;;;;;;;10.00;5.50;;;2.90;99.90;;;;;;5058199;28;20223;-83
2021/03/28 03:26:42;;;;;;;17.20;4.80;;;2.90;99.90;;;;;;5059026;28;20198;-82
2021/03/28 03:29:38;;;;;;;13.10;5.15;;;2.90;99.90;;;;;;5057838;28;20191;-82
2021/03/28 03:32:33;;;;;;;6.75;4.97;;;2.90;99.90;;;;;;5069949;28;20206;-79
2021/03/28 03:35:08;;;;;;;9.80;4.90;;;2.90;99.90;;;;;;5074711;28;20211;-82
2021/03/28 03:38:18;;;;;;;7.72;5.97;;;2.80;99.90;;;;;;5064412;28;20186;-83
2021/03/28 03:41:01;;;;;;;7.50;5.00;;;2.90;99.90;;;;;;5058926;28;20650;-83
2021/03/28 03:43:49;;;;;;;7.93;5.88;;;2.80;99.90;;;;;;5058962;28;20254;-83
2021/03/28 03:46:33;;;;;;;6.25;5.22;;;2.80;99.90;;;;;;5059183;28;20183;-84
2021/03/28 03:49:15;;;;;;;9.00;5.32;;;2.80;99.90;;;;;;5058431;28;20183;-83
2021/03/28 03:51:55;;;;;;;7.30;5.00;;;2.80;99.90;;;;;;5061821;28;20187;-83
2021/03/28 03:54:35;;;;;;;5.47;4.45;;;2.70;99.90;;;;;;5059334;28;20253;-82
2021/03/28 03:57:08;;;;;;;11.27;6.07;;;2.70;99.90;;;;;;5058565;28;20202;-82
2021/03/28 03:59:52;;;;;;;6.05;4.32;;;2.80;99.90;;;;;;5061533;28;20187;-83
2021/03/28 04:02:24;;;;;;;11.25;6.05;;;3.00;99.90;;;;;;5064766;28;20195;-83
2021/03/28 04:05:01;;;;;;;8.43;6.00;;;2.80;99.90;;;;;;5058409;28;20192;-83
2021/03/28 04:07:39;;;;;;;6.55;4.82;;;2.80;99.90;;;;;;5058165;28;20187;-83
2021/03/28 04:10:19;;;;;;;7.35;4.90;;;2.70;99.90;;;;;;5059084;28;20187;-83
2021/03/28 04:13:05;;;;;;;7.90;5.35;;;2.70;99.90;;;;;;5061591;28;20245;-82
2021/03/28 04:15:44;;;;;;;9.50;4.97;;;2.70;99.90;;;;;;5061911;28;20245;-82
2021/03/28 04:18:24;;;;;;;8.98;5.97;;;2.70;99.90;;;;;;5062018;28;20205;-83
2021/03/28 04:20:57;;;;;;;9.40;6.25;;;2.70;99.90;;;;;;5077613;28;20201;-81
2021/03/28 04:23:46;;;;;;;13.13;4.47;;;2.70;99.90;;;;;;5080166;28;20207;-80
2021/03/28 04:26:27;;;;;;;6.05;5.38;;;2.70;99.90;;;;;;5070565;28;20199;-83
2021/03/28 04:28:56;;;;;;;5.00;4.55;;;2.90;99.90;;;;;;5061810;28;20218;-83
2021/03/28 04:31:59;;;;;;;14.93;5.30;;;2.70;99.90;;;;;;5061797;28;20210;-83
2021/03/28 04:34:28;;;;;;;17.40;6.05;;;2.70;99.90;;;;;;5063034;28;20611;-81
2021/03/28 04:37:14;;;;;;;7.40;5.75;;;2.70;99.90;;;;;;5061680;28;20207;-82
2021/03/28 04:40:03;;;;;;;8.77;5.15;;;2.70;99.90;;;;;;5062118;28;20187;-81
2021/03/28 04:43:15;;;;;;;9.80;5.55;;;2.90;99.90;;;;;;5061550;28;20206;-82
2021/03/28 04:46:09;;;;;;;10.18;5.60;;;2.60;99.90;;;;;;5061622;28;20210;-81
2021/03/28 04:49:08;;;;;;;11.70;5.63;;;2.60;99.90;;;;;;5051868;28;20203;-81
2021/03/28 04:52:03;;;;;;;6.80;4.65;;;2.70;99.90;;;;;;5031833;28;20206;-81
2021/03/28 04:54:48;;;;;;;9.43;5.45;;;2.40;99.90;;;;;;5070671;28;20227;-80
2021/03/28 04:57:21;;;;;;;6.68;4.65;;;2.70;99.90;;;;;;5070774;28;20188;-82
2021/03/28 05:00:29;;;;;;;6.40;4.65;;;2.70;99.90;;;;;;5062697;28;20206;-81
2021/03/28 05:03:24;;;;;;;14.43;4.78;;;2.80;99.90;;;;;;5062165;28;20254;-82
2021/03/28 05:06:09;;;;;;;8.93;5.32;;;2.80;99.90;;;;;;5058751;28;20211;-82
2021/03/28 05:09:11;;;;;;;10.95;5.78;;;2.80;99.90;;;;;;5062602;28;20190;-81
2021/03/28 05:12:15;;;;;;;9.88;5.57;;;2.80;99.90;;;;;;5064425;28;20665;-83
2021/03/28 05:15:33;;;;;;;10.73;4.97;;;2.50;99.90;;;;;;5072057;28;20310;-82
2021/03/28 05:18:33;;;;;;;9.35;5.65;;;2.70;99.90;;;;;;5060415;28;20203;-83
2021/03/28 05:21:28;;;;;;;18.63;5.47;;;2.80;99.90;;;;;;5064801;28;20560;-82
2021/03/28 05:24:40;;;;;;;14.25;5.85;;;3.00;99.90;;;;;;5062548;28;20598;-83
2021/03/28 05:27:35;;;;;;;7.07;5.15;;;2.90;99.90;;;;;;5062915;28;20192;-83
2021/03/28 05:30:44;;;;;;;11.68;5.03;;;2.90;99.90;;;;;;5063181;28;20592;-82
2021/03/28 05:33:51;;;;;;;5.68;4.60;;;2.80;99.90;;;;;;4998605;28;20231;-82
2021/03/28 05:36:44;;;;;;;9.93;4.88;;;2.90;99.90;;;;;;5070510;28;20211;-80
2021/03/28 05:39:39;;;;;;;6.93;5.53;;;2.80;99.90;;;;;;5079485;28;20202;-81
2021/03/28 05:42:33;;;;;;;10.80;5.03;;;3.10;99.90;;;;;;5078130;28;20187;-82
2021/03/28 05:45:21;;;;;;;7.38;5.30;;;2.90;99.90;;;;;;5079366;28;20171;-81
2021/03/28 05:48:13;;;;;;;9.13;5.75;;;3.00;99.90;;;;;;5079883;28;20426;-82
2021/03/28 05:50:50;;;;;;;17.77;5.57;;;2.80;99.90;;;;;;5079942;28;20184;-82
2021/03/28 05:53:59;;;;;;;8.85;5.32;;;2.90;99.90;;;;;;5079698;28;20203;-82
2021/03/28 05:57:27;;;;;;;7.85;5.07;;;3.10;99.90;;;;;;5079164;28;20179;-83
2021/03/28 06:00:29;;;;;;;12.65;6.60;;;2.80;99.90;;;;;;5066173;28;20191;-84
2021/03/28 06:03:27;;;;;;;9.45;5.75;;;2.90;99.90;;;;;;5034175;28;20225;-82
2021/03/28 06:06:29;;;;;;;16.58;6.28;;;3.10;99.90;;;;;;5066081;28;20919;-82
2021/03/28 06:09:32;;;;;;;8.55;5.80;;;2.90;99.90;;;;;;5062977;28;20206;-83
2021/03/28 06:12:20;;;;;;;11.00;5.93;;;3.00;99.90;;;;;;5061782;28;20460;-83
2021/03/28 06:15:09;;;;;;;10.85;6.40;;;3.00;99.90;;;;;;5063457;28;20230;-83
2021/03/28 06:18:11;;;;;;;6.95;6.35;;;3.10;99.90;;;;;;5055499;28;20199;-83
2021/03/28 06:20:56;;;;;;;10.65;5.85;;;3.20;99.90;;;;;;5061230;28;20190;-82
2021/03/28 06:23:58;;;;;;;6.22;5.53;;;3.30;99.90;;;;;;5058068;28;20222;-82
2021/03/28 06:27:09;;;;;;;11.43;5.25;;;3.70;99.90;;;;;;5061682;28;20206;-82
2021/03/28 06:30:18;;;;;;;9.88;5.25;;;3.70;99.90;;;;;;5061191;28;20183;-81
2021/03/28 06:33:15;;;;;;;7.15;5.45;;;3.80;99.90;;;;;;5060125;28;20222;-82
2021/03/28 06:36:09;;;;;;;10.37;5.70;;;4.40;99.90;;;;;;5058875;28;20956;-81
2021/03/28 06:39:30;;;;;;;6.38;4.82;;;4.10;99.90;;;;;;5060879;28;20408;-82
2021/03/28 06:42:28;;;;;;;8.27;5.35;;;4.10;99.90;;;;;;5068605;28;20195;-81
2021/03/28 06:45:25;;;;;;;7.88;4.85;;;4.10;99.90;;;;;;5052259;28;20199;-82
2021/03/28 06:48:19;;;;;;;9.88;5.15;;;4.20;99.90;;;;;;5053935;28;20210;-81
2021/03/28 06:51:17;;;;;;;8.05;5.40;;;4.40;99.90;;;;;;5073560;28;20207;-82
2021/03/28 06:54:25;;;;;;;8.73;4.80;;;4.50;99.90;;;;;;5070508;28;20253;-80
2021/03/28 06:57:28;;;;;;;5.57;4.78;;;4.50;99.90;;;;;;5073385;28;20248;-82
2021/03/28 07:00:12;;;;;;;11.75;4.60;;;4.70;99.90;;;;;;5072698;28;20286;-82
2021/03/28 07:03:16;;;;;;;6.63;6.00;;;4.80;99.90;;;;;;5060803;28;20230;-83
2021/03/28 07:05:46;;;;;;;14.80;5.70;;;4.80;99.90;;;;;;5064939;28;20202;-82
2021/03/28 07:08:41;;;;;;;7.40;4.95;;;4.80;99.90;;;;;;5076589;28;20183;-81
2021/03/28 07:11:47;;;;;;;9.35;4.85;;;4.90;99.90;;;;;;5074808;28;20244;-82
2021/03/28 07:14:59;;;;;;;7.05;5.45;;;5.00;99.90;;;;;;5058260;28;20231;-83
2021/03/28 07:18:13;;;;;;;10.52;5.63;;;5.20;99.90;;;;;;5059770;28;20194;-81
2021/03/28 07:21:17;;;;;;;6.50;5.00;;;5.30;99.90;;;;;;5058202;28;20688;-84
2021/03/28 07:24:20;;;;;;;8.27;5.07;;;5.40;99.90;;;;;;5023079;28;20222;-82
2021/03/28 07:26:57;;;;;;;7.15;5.53;;;5.60;99.90;;;;;;5064575;28;20201;-82
2021/03/28 07:30:19;;;;;;;6.85;5.28;;;5.60;99.90;;;;;;5075863;28;20197;-82
2021/03/28 07:33:27;;;;;;;11.63;6.20;;;6.50;99.90;;;;;;4996204;28;20210;-80
2021/03/28 07:36:16;;;;;;;5.63;4.88;;;5.90;99.90;;;;;;5076307;28;20263;-82
2021/03/28 07:39:11;;;;;;;7.15;5.13;;;5.90;99.90;;;;;;5076318;28;20202;-81
2021/03/28 07:42:04;;;;;;;11.10;5.78;;;6.00;99.90;;;;;;5076501;28;20214;-82
2021/03/28 07:45:07;;;;;;;8.75;5.25;;;6.00;99.90;;;;;;5084440;22;488770;-82
2021/03/28 07:48:12;;;;;;;13.75;6.07;;;6.30;99.90;;;;;;5072691;28;20206;-82
2021/03/28 07:51:15;;;;;;;10.75;5.75;;;6.40;99.90;;;;;;5071804;28;20187;-82
2021/03/28 07:54:20;;;;;;;12.82;7.22;;;6.60;99.90;;;;;;5074566;28;20317;-82
2021/03/28 07:57:13;;;;;;;12.45;6.40;;;6.50;99.90;;;;;;5074812;28;20210;-82
2021/03/28 07:59:55;;;;;;;7.68;5.57;;;6.60;99.90;;;;;;5075474;28;20229;-82
2021/03/28 08:02:53;;;;;;;13.68;5.78;;;6.80;99.90;;;;;;5073699;28;20274;-83
2021/03/28 08:05:32;;;;;;;6.40;5.43;;;7.00;99.90;;;;;;5072124;28;20202;-84
2021/03/28 08:08:10;;;;;;;8.82;4.85;;;7.10;99.90;;;;;;5075225;28;20198;-82
2021/03/28 08:11:00;;;;;;;11.27;7.35;;;7.40;99.90;;;;;;5076206;28;20187;-82
2021/03/28 08:13:56;;;;;;;9.40;5.22;;;7.50;99.90;;;;;;5079031;28;20215;-82
2021/03/28 08:16:39;;;;;;;10.40;4.47;;;7.70;99.90;;;;;;5080083;28;20571;-82
2021/03/28 08:19:37;;;;;;;12.32;5.53;;;7.60;99.90;;;;;;5078520;28;20187;-83
2021/03/28 08:22:32;;;;;;;7.13;4.47;;;7.70;99.90;;;;;;5045290;28;20199;-84
2021/03/28 08:25:36;;;;;;;10.65;5.70;;;8.00;99.90;;;;;;5072707;28;20199;-83
2021/03/28 08:28:45;;;;;;;7.22;5.28;;;8.30;99.90;;;;;;5073158;28;20222;-83
2021/03/28 08:31:21;;;;;;;7.40;4.93;;;8.30;99.90;;;;;;5073222;28;20191;-84
2021/03/28 08:34:32;;;;;;;8.63;4.37;;;8.80;99.90;;;;;;5071872;28;20242;-83
2021/03/28 08:37:14;;;;;;;12.05;4.93;;;8.70;99.90;;;;;;5034056;28;20477;-83
2021/03/28 08:39:59;;;;;;;10.43;5.57;;;8.60;99.90;;;;;;5070471;28;20183;-82
2021/03/28 08:42:52;;;;;;;6.43;4.32;;;8.60;99.90;;;;;;5069795;28;20198;-83
2021/03/28 08:45:28;;;;;;;6.90;4.10;;;8.70;99.90;;;;;;5070979;28;20187;-84
2021/03/28 08:48:34;;;;;;;10.82;4.72;;;8.50;99.90;;;;;;5074365;28;20191;-83
2021/03/28 08:51:36;;;;;;;9.30;6.45;;;8.40;99.90;;;;;;5076894;28;20190;-82
2021/03/28 08:54:30;;;;;;;9.25;4.88;;;8.70;99.90;;;;;;5078163;28;20225;-82
2021/03/28 08:57:14;;;;;;;10.13;4.60;;;8.70;99.90;;;;;;5074940;28;20214;-83
2021/03/28 08:59:54;;;;;;;7.40;4.88;;;8.80;99.90;;;;;;5074254;28;20433;-83
2021/03/28 09:02:36;;;;;;;7.93;4.00;;;8.90;99.90;;;;;;5070390;28;20275;-83
2021/03/28 09:05:17;;;;;;;6.85;4.20;;;8.80;99.90;;;;;;5075615;28;20436;-82
2021/03/28 09:07:53;;;;;;;7.87;4.67;;;8.90;99.90;;;;;;5070207;28;20198;-82
2021/03/28 09:10:53;;;;;;;8.93;4.15;;;9.00;99.90;;;;;;5072074;28;20429;-83
2021/03/28 09:13:42;;;;;;;10.98;4.57;;;8.90;99.90;;;;;;5075200;28;20227;-84
2021/03/28 09:16:19;;;;;;;4.22;3.10;;;9.00;99.90;;;;;;5070409;28;20203;-83
2021/03/28 09:18:53;;;;;;;4.50;4.10;;;9.10;99.90;;;;;;5071566;28;20187;-83
2021/03/28 09:21:33;;;;;;;7.27;3.70;;;9.20;99.90;;;;;;5075830;28;20389;-84
2021/03/28 09:24:26;;;;;;;7.67;3.90;;;9.10;99.90;;;;;;5071201;28;20436;-84
2021/03/28 09:27:15;;;;;;;6.93;4.00;;;9.30;99.90;;;;;;5069676;28;20412;-83
2021/03/28 09:29:56;;;;;;;9.73;3.60;;;9.60;99.90;;;;;;5067730;28;20426;-83
2021/03/28 09:32:49;;;;;;;7.80;4.17;;;9.50;99.90;;;;;;5070337;28;20543;-84
2021/03/28 09:35:39;;;;;;;7.20;4.43;;;9.60;99.90;;;;;;5075818;28;20447;-84
2021/03/28 09:38:14;;;;;;;7.50;3.63;;;9.50;99.90;;;;;;5074466;28;20427;-85
2021/03/28 09:40:49;;;;;;;7.53;4.00;;;9.70;99.90;;;;;;5072564;28;20480;-82
2021/03/28 09:43:25;;;;;;;15.80;4.37;;;9.80;99.90;;;;;;5072092;28;20451;-82
2021/03/28 09:46:15;;;;;;;7.17;3.97;;;10.20;99.90;;;;;;5073890;28;20408;-83
2021/03/28 09:49:04;;;;;;;7.07;3.53;;;10.00;99.90;;;;;;5069465;28;20441;-83
2021/03/28 09:52:06;;;;;;;5.60;3.77;;;10.30;99.90;;;;;;5067656;28;20457;-82
2021/03/28 09:55:03;;;;;;;5.03;4.47;;;10.40;99.90;;;;;;5063435;28;20495;-83
2021/03/28 09:58:00;;;;;;;8.50;3.97;;;10.40;99.90;;;;;;5061916;28;20452;-83
2021/03/28 10:00:43;;;;;;;7.40;4.10;;;10.40;99.90;;;;;;5064075;28;20415;-83
2021/03/28 10:03:19;;;;;;;7.47;3.50;;;10.60;99.90;;;;;;5067767;28;20465;-83
2021/03/28 10:05:46;;;;;;;10.60;3.93;;;10.50;99.90;;;;;;5074352;28;20445;-83
2021/03/28 10:08:17;;;;;;;8.40;4.10;;;10.30;99.90;;;;;;5066240;28;20531;-83
2021/03/28 10:11:09;;;;;;;7.20;4.07;;;10.40;99.90;;;;;;5064757;28;20438;-84
2021/03/28 10:13:50;;;;;;;7.47;4.87;;;10.30;99.90;;;;;;5064542;28;20473;-83
2021/03/28 10:16:23;;;;;;;8.80;4.00;;;10.40;99.90;;;;;;5064128;28;20430;-83
2021/03/28 10:19:16;;;;;;;7.73;5.30;;;10.30;99.90;;;;;;5065072;28;20452;-87
2021/03/28 10:22:32;;;;;;;5.50;3.40;;;10.20;99.90;;;;;;5062857;28;20424;-85
2021/03/28 10:25:34;;;;;;;9.53;4.70;;;10.50;99.90;;;;;;4985201;28;20479;-84
2021/03/28 10:28:32;;;;;;;7.80;4.87;;;10.40;99.90;;;;;;5067477;28;20432;-84
2021/03/28 10:31:13;;;;;;;8.70;4.70;;;10.80;99.90;;;;;;5066507;28;20449;-84
2021/03/28 10:33:55;;;;;;;6.03;4.37;;;10.80;99.90;;;;;;5067650;28;20477;-86
2021/03/28 10:36:32;;;;;;;8.43;3.93;;;10.80;99.90;;;;;;5066183;28;20430;-85
2021/03/28 10:39:18;;;;;;;5.20;4.20;;;11.20;99.90;;;;;;5066240;28;20965;-85
2021/03/28 10:42:08;;;;;;;5.67;3.50;;;11.00;99.90;;;;;;5065081;28;20439;-86
2021/03/28 10:45:19;;;;;;;4.37;3.97;;;10.90;99.90;;;;;;5066871;28;20508;-84
2021/03/28 10:48:25;;;;;;;5.00;3.87;;;11.00;99.90;;;;;;5054326;28;20457;-85
2021/03/28 10:51:14;;;;;;;6.25;3.25;;;11.30;99.90;;;;;;5069933;28;20439;-85
2021/03/28 10:53:55;;;;;;;8.87;4.50;;;11.40;99.90;;;;;;5068542;28;20219;-85
2021/03/28 10:56:59;;;;;;;12.27;3.13;;;11.50;99.90;;;;;;5069391;28;20430;-84
2021/03/28 11:00:23;;;;;;;12.50;5.03;;;11.70;99.90;;;;;;5067419;28;20476;-85
2021/03/28 11:03:48;;;;;;;6.40;2.73;;;12.30;99.90;;;;;;5070330;28;20457;-84
2021/03/28 11:06:43;;;;;;;8.90;3.90;;;12.00;99.90;;;;;;4989897;28;20452;-84
2021/03/28 11:09:36;;;;;;;4.50;2.57;;;12.10;99.90;;;;;;5071314;28;20436;-85
2021/03/28 11:12:24;;;;;;;7.73;2.83;;;11.80;99.90;;;;;;5069474;28;20437;-84
2021/03/28 11:15:11;;;;;;;6.23;3.07;;;11.60;99.90;;;;;;5061075;28;20489;-85
2021/03/28 11:17:58;;;;;;;6.97;2.53;;;11.80;99.90;;;;;;5073429;28;20438;-85
2021/03/28 11:20:29;;;;;;;6.20;3.13;;;11.70;99.90;;;;;;5073856;28;20414;-85
2021/03/28 11:23:25;;;;;;;4.00;3.57;;;11.60;99.90;;;;;;5075118;28;20476;-84
2021/03/28 11:26:30;;;;;;;7.27;2.63;;;11.70;99.90;;;;;;5073677;28;21056;-82
2021/03/28 11:29:33;;;;;;;6.07;3.30;;;11.90;99.90;;;;;;5063422;28;20445;-83
2021/03/28 11:32:05;;;;;;;9.20;3.77;;;12.00;99.90;;;;;;5075352;28;20448;-83
2021/03/28 11:34:36;;;;;;;6.40;3.50;;;12.20;99.90;;;;;;5073953;28;20485;-82
2021/03/28 11:37:06;;;;;;;5.17;3.57;;;12.10;99.90;;;;;;5073408;28;20416;-82
2021/03/28 11:39:35;;;;;;;5.40;3.83;;;12.20;99.90;;;;;;5072927;28;20457;-81
2021/03/28 11:42:22;;;;;;;6.80;3.87;;;12.20;99.90;;;;;;5071386;28;20448;-81
2021/03/28 11:48:56;;;;;;;;;;;;;;;;;;;;;
2021/03/28 12:09:50;;;;;;;9.27;3.37;;;12.20;99.90;;;;;;4822789;29;20490;-81
2021/03/28 13:15:55;;;;;;;13.27;3.13;;;12.80;99.90;;;;;;1362101;26;20465;-79
2021/03/28 13:18:27;;;;;;;2.70;2.50;;;12.60;99.90;;;;;;5035918;28;20224;-76
2021/03/28 13:20:55;;;;;;;5.47;2.60;;;12.80;99.90;;;;;;5036268;28;20426;-77
2021/03/28 13:23:29;;;;;;;5.60;3.10;;;12.90;99.90;;;;;;5035667;28;20808;-75
2021/03/28 13:26:16;;;;;;;8.00;3.00;;;13.10;99.90;;;;;;5035626;28;20492;-76
2021/03/28 13:28:53;;;;;;;7.82;2.67;;;12.70;99.90;;;;;;5069438;23;20972;-80
2021/03/28 13:31:32;;;;;;;4.67;2.40;;;13.10;99.90;;;;;;5077644;28;20170;-80
2021/03/28 13:34:01;;;;;;;5.18;2.28;;;12.80;99.90;;;;;;5076396;28;20436;-82
2021/03/28 13:36:30;;;;;;;5.73;2.83;;;12.90;99.90;;;;;;5071349;28;20214;-84
2021/03/28 13:39:12;;;;;;;6.33;3.10;;;13.20;99.90;;;;;;5067436;28;20465;-81
2021/03/28 13:41:41;;;;;;;7.37;3.47;;;13.50;99.90;;;;;;5064834;28;20436;-82
2021/03/28 13:44:22;;;;;;;6.03;4.17;;;13.50;99.90;;;;;;5067936;28;20539;-83
2021/03/28 13:46:51;;;;;;;6.90;3.10;;;13.00;99.90;;;;;;5071346;28;20432;-83
2021/03/28 13:49:29;;;;;;;7.03;3.47;;;13.20;99.90;;;;;;5070411;28;20450;-83
2021/03/28 13:52:26;;;;;;;9.93;3.73;;;12.80;99.90;;;;;;5070713;28;20456;-82
2021/03/28 13:55:06;;;;;;;8.60;3.40;;;12.70;99.90;;;;;;5012409;28;20432;-82
2021/03/28 13:57:35;;;;;;;5.67;3.23;;;12.40;99.90;;;;;;5066150;28;20468;-81
2021/03/28 14:00:10;;;;;;;5.43;2.70;;;12.40;99.90;;;;;;5072235;28;20854;-83
2021/03/28 14:02:40;;;;;;;4.80;2.80;;;12.30;99.90;;;;;;5069214;28;20432;-82
2021/03/28 14:05:09;;;;;;;5.60;2.70;;;12.20;99.90;;;;;;5071240;28;20492;-84
2021/03/28 14:07:50;;;;;;;6.13;2.33;;;12.20;99.90;;;;;;5072297;28;20441;-83
2021/03/28 14:10:20;;;;;;;13.07;3.90;;;12.20;99.90;;;;;;5073185;28;20488;-84
2021/03/28 14:12:53;;;;;;;4.97;3.00;;;12.10;99.90;;;;;;5071418;28;20453;-83
2021/03/28 14:15:37;;;;;;;7.30;3.30;;;12.30;99.90;;;;;;5069644;28;20506;-83
2021/03/28 14:21:54;;;;;;;10.33;3.30;;;12.30;99.90;;;;;;5065451;28;20923;-82
2021/03/28 14:25:07;;;;;;;12.50;3.37;;;12.30;99.90;;;;;;5068324;28;20568;-85
2021/03/28 14:27:37;;;;;;;5.37;3.30;;;12.50;99.90;;;;;;5068858;28;20430;-83
2021/03/28 14:30:15;;;;;;;4.37;3.60;;;12.30;99.90;;;;;;5066069;28;20486;-84
2021/03/28 14:32:45;;;;;;;5.60;3.10;;;12.10;99.90;;;;;;5066343;28;20477;-85
2021/03/28 14:35:35;;;;;;;6.10;3.10;;;12.20;99.90;;;;;;5066233;28;20434;-82
2021/03/28 14:38:34;;;;;;;7.23;4.00;;;12.30;99.90;;;;;;5065371;28;20441;-83
2021/03/28 14:41:45;;;;;;;5.53;3.87;;;12.30;99.90;;;;;;5068789;28;20446;-83
2021/03/28 14:45:02;;;;;;;6.23;3.80;;;12.40;99.90;;;;;;5007922;28;20483;-87
2021/03/28 14:47:52;;;;;;;3.80;2.53;;;12.40;99.90;;;;;;5062706;28;20480;-84
2021/03/28 14:50:25;;;;;;;7.53;3.27;;;12.50;99.90;;;;;;5064889;28;20465;-84
2021/03/28 14:53:02;;;;;;;5.50;3.90;;;12.40;99.90;;;;;;5067182;28;20463;-84
2021/03/28 14:55:41;;;;;;;6.90;3.10;;;12.10;99.90;;;;;;5063140;28;20452;-84
2021/03/28 14:58:28;;;;;;;5.97;3.30;;;11.80;99.90;;;;;;5062175;28;20453;-84
2021/03/28 15:00:59;;;;;;;13.90;6.50;;;12.80;99.90;;;;;;5063111;28;20809;-85
2021/03/28 15:03:56;;;;;;;7.50;3.80;;;13.10;99.90;;;;;;5063737;28;20436;-81
2021/03/28 15:06:37;;;;;;;14.63;6.77;;;13.20;99.90;;;;;;5064760;28;20531;-84
2021/03/28 15:09:15;;;;;;;16.67;7.00;;;12.50;99.90;;;;;;5065308;28;20874;-84
2021/03/28 15:11:46;;;;;;;5.93;3.33;;;12.40;99.90;;;;;;5065812;28;20434;-85
2021/03/28 15:14:20;;;;;;;5.47;3.40;;;12.30;99.90;;;;;;5066899;28;20425;-85
2021/03/28 15:16:52;;;;;;;5.43;4.10;;;12.20;99.90;;;;;;5065381;28;20425;-84
2021/03/28 15:19:23;;;;;;;8.43;3.57;;;12.30;99.90;;;;;;5068003;28;20457;-86
2021/03/28 15:22:02;;;;;;;10.33;3.57;;;12.60;99.90;;;;;;5064915;28;20560;-84
2021/03/28 15:24:37;;;;;;;4.93;2.97;;;12.10;99.90;;;;;;5063296;28;20466;-85
2021/03/28 15:27:17;;;;;;;6.87;3.20;;;12.40;99.90;;;;;;5061741;28;20440;-88
2021/03/28 15:29:49;;;;;;;3.80;2.37;;;12.30;99.90;;;;;;5062519;28;20477;-85
2021/03/28 15:32:35;;;;;;;3.67;2.87;;;12.20;99.90;;;;;;5065393;28;20433;-84
2021/03/28 15:35:11;;;;;;;3.50;2.73;;;12.20;99.90;;;;;;5076992;28;20436;-84
2021/03/28 15:37:42;;;;;;;4.13;2.97;;;12.20;99.90;;;;;;5057856;28;20438;-85
2021/03/28 15:40:34;;;;;;;3.60;3.30;;;12.20;99.90;;;;;;5076265;28;20469;-86
2021/03/28 15:43:23;;;;;;;3.67;2.50;;;12.00;99.90;;;;;;5058681;28;20577;-82
2021/03/28 15:46:04;;;;;;;7.93;3.30;;;12.40;99.90;;;;;;5075247;28;20480;-83
2021/03/28 15:48:56;;;;;;;4.77;3.53;;;12.40;99.90;;;;;;5077812;28;20472;-83
2021/03/28 15:51:32;;;;;;;4.57;2.80;;;12.20;99.90;;;;;;5073665;28;20425;-82
2021/03/28 15:54:25;;;;;;;9.20;4.07;;;12.30;99.90;;;;;;5077508;28;20479;-83
2021/03/28 15:57:05;;;;;;;6.80;4.00;;;12.20;99.90;;;;;;5066029;28;20434;-85
2021/03/28 15:59:56;;;;;;;7.00;3.80;;;12.20;99.90;;;;;;5064121;28;20461;-85
2021/03/28 16:02:31;;;;;;;5.93;3.70;;;12.10;99.90;;;;;;5066771;28;20445;-84
2021/03/28 16:05:27;;;;;;;6.83;3.33;;;12.30;99.90;;;;;;5069173;28;20464;-83